Decoded Metar for KXSA ( in _UNIDENTIFIED) (IATA:N/A) | Meteo·Mobile Aviation Weather
aviador You're here:

KXSA Decoded Metar

in _UNIDENTIFIED
Report Time2019-10-18 13:55:00
UTC Time2019-10-18 14:07:07
Flight Rules vfr VFR
Wind270° at 07 kt
W.Decomp.*RWY 28: 7.0 kt HW 0.1 kt RCW
Visibility9999 m
Phenomena:N/A
Clouds:N/A
Expected CloudBase > 2,800 ft AGL from Temp-Dew spread
CeilingNone
Temp11°C (ISA -4)
Dew Point04°C (62% RH)
AAT7.2°C
QNH1016 hPa
Density Alt-295 ft
Elevation138 ft
Report Wrong Elevation
Raw Report
METAR KXSA 181355Z AUTO 27007KT 10SM CLR 11/04 A3000 RMK AO2 T01140036=

Extra information for KXSA:More info

Metar Taf Metar & Taf Last 4 Metars F.Rules Stats Wind Profile Meteogram Temp Stats Metar ALERT Operation Metar Decoded Social comments